createdAt,value
2019-02-27T00:00:17.351Z,404.28
2019-02-27T00:01:17.611Z,404.82
2019-02-27T00:02:17.315Z,404.75
2019-02-27T00:03:17.333Z,404.58
2019-02-27T00:04:17.291Z,405.46
2019-02-27T00:05:17.292Z,404.48
2019-02-27T00:06:17.273Z,404.28
2019-02-27T00:07:20.804Z,404.70
2019-02-27T00:08:17.350Z,404.88
2019-02-27T00:09:17.241Z,404.39
2019-02-27T00:10:17.237Z,404.56
2019-02-27T00:11:17.260Z,404.71
2019-02-27T00:12:19.366Z,404.39
2019-02-27T00:13:17.223Z,404.46
2019-02-27T00:14:17.187Z,404.41
2019-02-27T00:15:17.175Z,404.49
2019-02-27T00:16:17.169Z,404.08
2019-02-27T00:17:18.215Z,404.89
2019-02-27T00:18:17.160Z,404.52
2019-02-27T00:19:17.125Z,405.01
2019-02-27T00:20:17.112Z,404.40
2019-02-27T00:21:17.107Z,404.49
2019-02-27T00:22:17.639Z,403.75
2019-02-27T00:23:17.099Z,405.70
2019-02-27T00:24:17.091Z,404.94
2019-02-27T00:25:17.061Z,406.10
2019-02-27T00:26:17.047Z,404.31
2019-02-27T00:27:17.050Z,405.24
2019-02-27T00:28:17.043Z,404.81
2019-02-27T00:29:17.030Z,404.21
2019-02-27T00:30:16.998Z,404.68
2019-02-27T00:31:16.989Z,404.42
2019-02-27T00:32:18.659Z,404.23
2019-02-27T00:33:16.985Z,404.81
2019-02-27T00:34:16.971Z,404.75
2019-02-27T00:35:16.954Z,404.45
2019-02-27T00:36:16.935Z,404.89
2019-02-27T00:37:19.037Z,405.12
2019-02-27T00:38:16.926Z,404.83
2019-02-27T00:39:16.921Z,404.65
2019-02-27T00:40:16.900Z,404.69
2019-02-27T00:41:16.887Z,405.09
2019-02-27T00:42:19.509Z,404.96
2019-02-27T00:43:16.879Z,404.99
2019-02-27T00:44:16.848Z,405.11
2019-02-27T00:45:16.847Z,404.59
2019-02-27T00:46:16.830Z,404.68
2019-02-27T00:47:17.054Z,404.50
2019-02-27T00:48:16.804Z,404.69
2019-02-27T00:49:16.802Z,405.19
2019-02-27T00:50:16.778Z,405.03
2019-02-27T00:51:16.766Z,404.71
2019-02-27T00:52:18.389Z,404.88
2019-02-27T00:53:16.742Z,404.76
2019-02-27T00:54:16.748Z,404.84
2019-02-27T00:55:16.732Z,404.69
2019-02-27T00:56:16.718Z,405.35
2019-02-27T00:57:20.589Z,405.51
2019-02-27T00:58:16.704Z,405.61
2019-02-27T00:59:16.688Z,405.14
2019-02-27T01:00:16.659Z,404.35
2019-02-27T01:01:16.654Z,404.57
2019-02-27T01:02:19.973Z,404.81
2019-02-27T01:03:16.641Z,404.94
2019-02-27T01:04:16.643Z,404.78
2019-02-27T01:05:16.625Z,405.07
2019-02-27T01:06:16.650Z,405.02
2019-02-27T01:07:20.234Z,404.75
2019-02-27T01:08:16.594Z,405.09
2019-02-27T01:09:16.597Z,404.66
2019-02-27T01:10:16.557Z,404.77
2019-02-27T01:11:18.397Z,405.25
2019-02-27T01:12:16.536Z,405.15
2019-02-27T01:13:16.516Z,404.91
2019-02-27T01:14:16.530Z,405.23
2019-02-27T01:15:16.501Z,405.05
2019-02-27T01:16:17.260Z,406.07
2019-02-27T01:17:16.481Z,405.30
2019-02-27T01:18:16.478Z,405.06
2019-02-27T01:19:16.500Z,405.64
2019-02-27T01:20:16.475Z,404.83
2019-02-27T01:21:19.187Z,405.70
2019-02-27T01:22:16.423Z,405.59
2019-02-27T01:23:16.410Z,404.88
2019-02-27T01:24:17.416Z,405.06
2019-02-27T01:25:16.408Z,404.81
2019-02-27T01:26:16.380Z,404.96
2019-02-27T01:27:16.378Z,404.60
2019-02-27T01:28:16.373Z,404.72
2019-02-27T01:29:18.105Z,405.98
2019-02-27T01:30:16.331Z,405.39
2019-02-27T01:31:16.335Z,405.11
2019-02-27T01:32:16.311Z,405.09
2019-02-27T01:33:16.306Z,405.36
2019-02-27T01:34:16.297Z,404.93
2019-02-27T01:35:18.781Z,405.42
2019-02-27T01:36:16.282Z,405.88
2019-02-27T01:37:16.262Z,405.72
2019-02-27T01:38:16.250Z,405.55
2019-02-27T01:39:16.243Z,405.63
2019-02-27T01:40:17.940Z,405.94
2019-02-27T01:41:16.208Z,403.98
2019-02-27T01:42:16.212Z,403.50
2019-02-27T01:43:16.193Z,404.67
2019-02-27T01:44:16.181Z,404.93
2019-02-27T01:45:20.596Z,404.38
2019-02-27T01:46:16.154Z,405.32
2019-02-27T01:47:16.150Z,405.11
2019-02-27T01:48:16.128Z,406.08
2019-02-27T01:49:16.792Z,405.53
2019-02-27T01:50:16.142Z,405.62
2019-02-27T01:51:16.121Z,405.29
2019-02-27T01:52:16.082Z,405.87
2019-02-27T01:53:16.080Z,405.15
2019-02-27T01:54:16.063Z,405.21
2019-02-27T01:55:16.071Z,404.98
2019-02-27T01:56:16.040Z,405.57
2019-02-27T01:57:16.020Z,405.95
2019-02-27T01:58:16.020Z,405.11
2019-02-27T01:59:16.980Z,404.30
2019-02-27T02:00:16.009Z,405.25
2019-02-27T02:01:15.982Z,404.66
2019-02-27T02:02:15.982Z,404.84
2019-02-27T02:03:15.961Z,404.89
2019-02-27T02:04:20.034Z,405.64
2019-02-27T02:05:15.949Z,404.81
2019-02-27T02:06:15.945Z,405.69
2019-02-27T02:07:15.915Z,406.12
2019-02-27T02:08:15.910Z,404.65
2019-02-27T02:09:15.920Z,405.04
2019-02-27T02:10:15.892Z,405.13
2019-02-27T02:11:15.870Z,405.30
2019-02-27T02:12:15.867Z,404.85
2019-02-27T02:13:15.897Z,404.62
2019-02-27T02:14:15.838Z,403.86
2019-02-27T02:15:15.848Z,404.54
2019-02-27T02:16:15.838Z,405.04
2019-02-27T02:17:15.818Z,405.05
2019-02-27T02:18:15.790Z,404.77
2019-02-27T02:19:15.780Z,405.32
2019-02-27T02:20:15.784Z,404.29
2019-02-27T02:21:15.785Z,403.94
2019-02-27T02:22:15.748Z,404.94
2019-02-27T02:23:15.760Z,404.46
2019-02-27T02:24:15.731Z,404.85
2019-02-27T02:25:15.728Z,405.45
2019-02-27T02:26:15.729Z,404.85
2019-02-27T02:27:15.698Z,405.67
2019-02-27T02:28:15.694Z,406.12
2019-02-27T02:29:17.869Z,404.46
2019-02-27T02:30:15.665Z,404.55
2019-02-27T02:31:15.671Z,405.00
2019-02-27T02:32:17.503Z,404.64
2019-02-27T02:33:15.630Z,405.46
2019-02-27T02:34:15.621Z,404.42
2019-02-27T02:35:16.026Z,404.87
2019-02-27T02:36:15.619Z,405.39
2019-02-27T02:37:15.592Z,404.99
2019-02-27T02:38:15.563Z,405.44
2019-02-27T02:39:19.085Z,406.64
2019-02-27T02:40:15.549Z,405.16
2019-02-27T02:41:15.552Z,405.75
2019-02-27T02:42:15.533Z,405.11
2019-02-27T02:43:15.512Z,404.78
2019-02-27T02:44:20.697Z,405.47
2019-02-27T02:45:16.493Z,404.67
2019-02-27T02:46:15.501Z,405.36
2019-02-27T02:47:19.743Z,404.74
2019-02-27T02:48:16.482Z,404.58
2019-02-27T02:49:15.471Z,404.10
2019-02-27T02:50:17.852Z,404.05
2019-02-27T02:51:15.456Z,403.67
2019-02-27T02:52:15.415Z,405.97
2019-02-27T02:53:15.403Z,404.51
2019-02-27T02:54:15.388Z,404.62
2019-02-27T02:55:15.381Z,404.89
2019-02-27T02:56:15.378Z,406.00
2019-02-27T02:57:15.389Z,405.72
2019-02-27T02:58:15.365Z,404.03
2019-02-27T02:59:15.334Z,404.47
2019-02-27T03:00:15.343Z,404.34
2019-02-27T03:01:15.472Z,404.40
2019-02-27T03:02:15.309Z,404.70
2019-02-27T03:03:15.290Z,405.18
2019-02-27T03:04:15.279Z,403.72
2019-02-27T03:05:15.266Z,404.52
2019-02-27T03:06:15.302Z,404.17
2019-02-27T03:07:15.254Z,404.88
2019-02-27T03:08:19.953Z,406.62
2019-02-27T03:09:16.218Z,403.57
2019-02-27T03:10:15.236Z,405.01
2019-02-27T03:11:19.131Z,404.61
2019-02-27T03:12:15.215Z,406.14
2019-02-27T03:13:15.179Z,404.49
2019-02-27T03:14:17.639Z,404.56
2019-02-27T03:15:15.166Z,404.34
2019-02-27T03:16:15.153Z,404.36
2019-02-27T03:17:18.248Z,404.74
2019-02-27T03:18:15.127Z,404.36
2019-02-27T03:19:15.119Z,404.38
2019-02-27T03:20:17.709Z,404.52
2019-02-27T03:21:15.099Z,404.10
2019-02-27T03:22:15.094Z,404.10
2019-02-27T03:23:15.737Z,404.17
2019-02-27T03:24:15.056Z,405.44
2019-02-27T03:25:15.046Z,404.97
2019-02-27T03:26:16.957Z,404.71
2019-02-27T03:27:15.036Z,404.35
2019-02-27T03:28:15.024Z,403.96
2019-02-27T03:29:16.802Z,404.48
2019-02-27T03:30:14.988Z,404.04
2019-02-27T03:31:18.323Z,403.68
2019-02-27T03:32:14.998Z,404.39
2019-02-27T03:33:23.339Z,404.28
2019-02-27T03:34:15.956Z,404.67
2019-02-27T03:35:14.936Z,404.04
2019-02-27T03:36:14.936Z,404.24
2019-02-27T03:37:14.934Z,403.66
2019-02-27T03:38:14.903Z,403.74
2019-02-27T03:39:14.903Z,404.38
2019-02-27T03:40:14.878Z,404.95
2019-02-27T03:41:14.882Z,403.49
2019-02-27T03:42:14.874Z,403.71
2019-02-27T03:43:14.862Z,403.89
2019-02-27T03:44:20.247Z,403.57
2019-02-27T03:45:15.837Z,404.47
2019-02-27T03:46:14.820Z,404.35
2019-02-27T03:47:16.645Z,403.99
2019-02-27T03:48:14.801Z,398.86
2019-02-27T03:49:14.794Z,403.83
2019-02-27T03:50:15.654Z,403.57
2019-02-27T03:51:14.755Z,404.05
2019-02-27T03:52:14.782Z,403.46
2019-02-27T03:53:14.757Z,404.22
2019-02-27T03:54:20.869Z,399.44
2019-02-27T03:55:15.709Z,399.12
2019-02-27T03:56:14.706Z,399.04
2019-02-27T03:57:18.970Z,404.61
2019-02-27T03:58:15.741Z,399.05
2019-02-27T03:59:14.667Z,398.76
2019-02-27T04:00:17.991Z,399.35
2019-02-27T04:01:14.699Z,404.10
2019-02-27T04:02:14.672Z,404.10
2019-02-27T04:03:18.189Z,398.95
2019-02-27T04:04:14.618Z,403.74
2019-02-27T04:05:14.613Z,398.52
2019-02-27T04:06:20.169Z,403.94
2019-02-27T04:07:15.620Z,399.25
2019-02-27T04:08:14.576Z,403.43
2019-02-27T04:09:18.557Z,403.47
2019-02-27T04:10:15.549Z,403.51
2019-02-27T04:11:14.539Z,403.29
2019-02-27T04:12:16.627Z,403.27
2019-02-27T04:13:14.515Z,403.80
2019-02-27T04:14:14.511Z,404.10
2019-02-27T04:15:17.770Z,398.79
2019-02-27T04:16:14.524Z,404.04
2019-02-27T04:17:14.542Z,399.10
2019-02-27T04:18:14.472Z,404.08
2019-02-27T04:19:14.446Z,404.88
2019-02-27T04:20:15.573Z,403.87
2019-02-27T04:21:14.429Z,404.52
2019-02-27T04:22:14.431Z,404.18
2019-02-27T04:23:14.414Z,404.25
2019-02-27T04:24:14.389Z,399.17
2019-02-27T04:25:14.394Z,398.99
2019-02-27T04:26:14.374Z,404.03
2019-02-27T04:27:20.026Z,399.23
2019-02-27T04:28:15.339Z,398.40
2019-02-27T04:29:14.334Z,398.90
2019-02-27T04:30:15.007Z,404.07
2019-02-27T04:31:14.313Z,399.23
2019-02-27T04:32:14.335Z,398.79
2019-02-27T04:33:14.306Z,399.32
2019-02-27T04:34:14.299Z,404.20
2019-02-27T04:35:14.269Z,404.13
2019-02-27T04:36:14.267Z,404.43
2019-02-27T04:37:14.259Z,399.24
2019-02-27T04:38:14.251Z,403.99
2019-02-27T04:39:14.221Z,399.04
2019-02-27T04:40:14.220Z,405.00
2019-02-27T04:41:17.826Z,403.93
2019-02-27T04:42:14.200Z,403.91
2019-02-27T04:43:14.198Z,399.11
2019-02-27T04:44:14.193Z,403.70
2019-02-27T04:45:14.163Z,399.24
2019-02-27T04:46:14.152Z,403.85
2019-02-27T04:47:14.139Z,404.08
2019-02-27T04:48:14.145Z,404.18
2019-02-27T04:49:14.130Z,399.41
2019-02-27T04:50:14.109Z,404.30
2019-02-27T04:51:16.905Z,398.89
2019-02-27T04:52:14.083Z,403.87
2019-02-27T04:53:14.125Z,399.64
2019-02-27T04:54:14.063Z,404.10
2019-02-27T04:55:15.616Z,398.51
2019-02-27T04:56:14.054Z,404.59
2019-02-27T04:57:14.050Z,404.30
2019-02-27T04:58:14.049Z,404.45
2019-02-27T04:59:18.282Z,399.81
2019-02-27T05:00:14.006Z,399.60
2019-02-27T05:01:13.995Z,400.06
2019-02-27T05:02:14.667Z,404.80
2019-02-27T05:03:13.983Z,399.33
2019-02-27T05:04:13.952Z,404.38
2019-02-27T05:05:13.952Z,399.30
2019-02-27T05:06:14.524Z,404.61
2019-02-27T05:07:13.936Z,399.83
2019-02-27T05:08:13.937Z,405.12
2019-02-27T05:09:13.903Z,399.77
2019-02-27T05:10:13.892Z,404.01
2019-02-27T05:11:14.781Z,399.84
2019-02-27T05:12:13.866Z,405.10
2019-02-27T05:13:13.874Z,400.78
2019-02-27T05:14:13.853Z,404.85
2019-02-27T05:15:13.834Z,399.47
2019-02-27T05:16:14.730Z,404.60
2019-02-27T05:17:13.824Z,399.50
2019-02-27T05:18:13.841Z,405.72
2019-02-27T05:19:15.277Z,404.35
2019-02-27T05:20:13.788Z,404.81
2019-02-27T05:21:13.767Z,404.42
2019-02-27T05:22:13.760Z,404.98
2019-02-27T05:23:13.773Z,404.56
2019-02-27T05:24:13.752Z,405.08
2019-02-27T05:25:14.472Z,404.74
2019-02-27T05:26:13.724Z,404.31
2019-02-27T05:27:13.707Z,404.44
2019-02-27T05:28:13.687Z,399.73
2019-02-27T05:29:15.751Z,399.24
2019-02-27T05:30:13.883Z,399.31
2019-02-27T05:31:17.971Z,399.58
2019-02-27T05:32:13.663Z,399.53
2019-02-27T05:33:13.652Z,399.98
2019-02-27T05:34:13.717Z,404.86
2019-02-27T05:35:13.630Z,400.18
2019-02-27T05:36:13.621Z,404.50
2019-02-27T05:37:13.593Z,399.69
2019-02-27T05:38:13.594Z,404.63
2019-02-27T05:39:17.000Z,399.40
2019-02-27T05:40:13.580Z,405.17
2019-02-27T05:41:13.609Z,400.88
2019-02-27T05:42:13.554Z,405.69
2019-02-27T05:43:14.065Z,402.30
2019-02-27T05:44:13.544Z,408.13
2019-02-27T05:45:13.506Z,403.38
2019-02-27T05:46:15.079Z,407.64
2019-02-27T05:47:13.484Z,406.33
2019-02-27T05:48:13.486Z,405.00
2019-02-27T05:49:13.490Z,405.19
2019-02-27T05:50:13.472Z,405.18
2019-02-27T05:51:13.481Z,404.61
2019-02-27T05:52:14.367Z,404.98
2019-02-27T05:53:13.430Z,400.08
2019-02-27T05:54:13.439Z,405.06
2019-02-27T05:55:13.408Z,405.95
2019-02-27T05:56:15.827Z,405.38
2019-02-27T05:57:13.381Z,400.12
2019-02-27T05:58:13.367Z,405.86
2019-02-27T05:59:13.356Z,400.57
2019-02-27T06:00:13.373Z,405.23
2019-02-27T06:01:13.346Z,400.53
2019-02-27T06:02:13.332Z,405.32
2019-02-27T06:03:13.336Z,408.27
2019-02-27T06:04:13.327Z,405.37
2019-02-27T06:05:13.314Z,400.00
2019-02-27T06:06:13.282Z,405.37
2019-02-27T06:07:13.270Z,405.99
2019-02-27T06:08:13.277Z,405.13
2019-02-27T06:09:13.264Z,400.47
2019-02-27T06:10:13.393Z,405.98
2019-02-27T06:11:13.246Z,405.63
2019-02-27T06:12:13.221Z,405.24
2019-02-27T06:13:14.198Z,400.13
2019-02-27T06:14:13.227Z,405.32
2019-02-27T06:15:13.206Z,400.36
2019-02-27T06:16:13.186Z,405.67
2019-02-27T06:17:13.568Z,400.43
2019-02-27T06:18:13.158Z,406.49
2019-02-27T06:19:13.140Z,400.65
2019-02-27T06:20:13.161Z,405.47
2019-02-27T06:21:13.378Z,405.57
2019-02-27T06:22:13.124Z,406.05
2019-02-27T06:23:13.105Z,405.23
2019-02-27T06:24:13.095Z,405.85
2019-02-27T06:25:13.106Z,400.29
2019-02-27T06:26:13.083Z,407.46
2019-02-27T06:27:13.052Z,406.30
2019-02-27T06:28:13.097Z,405.86
2019-02-27T06:29:13.039Z,401.67
2019-02-27T06:30:13.085Z,409.17
2019-02-27T06:31:13.021Z,406.66
2019-02-27T06:32:13.001Z,406.29
2019-02-27T06:33:12.990Z,402.83
2019-02-27T06:34:13.045Z,406.47
2019-02-27T06:35:12.977Z,408.48
2019-02-27T06:36:12.961Z,407.02
2019-02-27T06:37:15.362Z,408.13
2019-02-27T06:38:12.938Z,406.66
2019-02-27T06:39:12.925Z,406.55
2019-02-27T06:40:12.935Z,407.04
2019-02-27T06:41:15.436Z,406.16
2019-02-27T06:42:12.977Z,406.98
2019-02-27T06:43:12.892Z,406.58
2019-02-27T06:44:12.874Z,406.18
2019-02-27T06:45:13.307Z,406.30
2019-02-27T06:46:12.872Z,406.30
2019-02-27T06:47:12.848Z,406.14
2019-02-27T06:48:12.840Z,406.21
2019-02-27T06:49:17.277Z,405.81
2019-02-27T06:50:13.827Z,406.54
2019-02-27T06:51:12.838Z,406.37
2019-02-27T06:52:12.822Z,405.71
2019-02-27T06:53:15.601Z,406.77
2019-02-27T06:54:12.763Z,407.03
2019-02-27T06:55:13.328Z,407.17
2019-02-27T06:56:12.998Z,407.68
2019-02-27T06:57:12.733Z,407.30
2019-02-27T06:58:14.805Z,406.44
2019-02-27T06:59:12.719Z,405.99
2019-02-27T07:00:12.706Z,407.39
2019-02-27T07:01:13.224Z,406.23
2019-02-27T07:02:12.695Z,406.74
2019-02-27T07:03:12.679Z,406.83
2019-02-27T07:04:12.650Z,407.38
2019-02-27T07:05:13.577Z,406.94
2019-02-27T07:06:12.656Z,408.52
2019-02-27T07:07:12.624Z,406.40
2019-02-27T07:08:12.623Z,406.46
2019-02-27T07:09:12.595Z,407.80
2019-02-27T07:10:12.588Z,406.82
2019-02-27T07:11:12.608Z,406.49
2019-02-27T07:12:12.586Z,407.47
2019-02-27T07:13:12.575Z,407.19
2019-02-27T07:14:12.544Z,407.27
2019-02-27T07:15:12.902Z,407.23
2019-02-27T07:16:12.546Z,407.00
2019-02-27T07:17:12.511Z,408.08
2019-02-27T07:18:12.533Z,407.97
2019-02-27T07:19:13.144Z,407.24
2019-02-27T07:20:12.498Z,406.48
2019-02-27T07:21:12.514Z,407.65
2019-02-27T07:22:12.718Z,407.88
2019-02-27T07:23:12.444Z,407.31
2019-02-27T07:24:12.434Z,407.27
2019-02-27T07:25:12.424Z,408.47
2019-02-27T07:26:13.251Z,408.11
2019-02-27T07:27:12.417Z,407.91
2019-02-27T07:28:12.390Z,409.10
2019-02-27T07:29:21.140Z,408.82
2019-02-27T07:30:13.366Z,408.79
2019-02-27T07:31:12.563Z,408.72
2019-02-27T07:32:12.368Z,409.08
2019-02-27T07:33:12.350Z,408.68
2019-02-27T07:34:14.371Z,410.15
2019-02-27T07:35:12.317Z,409.60
2019-02-27T07:36:12.311Z,411.39
2019-02-27T07:37:12.916Z,408.96
2019-02-27T07:38:12.292Z,409.47
2019-02-27T07:39:12.267Z,409.23
2019-02-27T07:40:12.422Z,409.51
2019-02-27T07:41:12.250Z,409.70
2019-02-27T07:42:12.251Z,409.68
2019-02-27T07:43:12.238Z,409.40
2019-02-27T07:44:12.218Z,412.34
2019-02-27T07:45:12.242Z,410.17
2019-02-27T07:46:12.185Z,404.62
2019-02-27T07:47:12.205Z,410.65
2019-02-27T07:48:12.183Z,404.49
2019-02-27T07:49:12.152Z,409.63
2019-02-27T07:50:12.145Z,404.84
2019-02-27T07:51:12.132Z,409.62
2019-02-27T07:52:12.133Z,404.22
2019-02-27T07:53:12.107Z,409.70
2019-02-27T07:54:12.091Z,404.66
2019-02-27T07:55:19.965Z,410.26
2019-02-27T07:56:13.089Z,404.44
2019-02-27T07:57:12.099Z,410.47
2019-02-27T07:58:12.054Z,405.14
2019-02-27T07:59:12.057Z,409.56
2019-02-27T08:00:14.993Z,404.18
2019-02-27T08:01:12.025Z,409.26
2019-02-27T08:02:12.005Z,404.72
2019-02-27T08:03:13.086Z,410.42
2019-02-27T08:04:12.001Z,404.23
2019-02-27T08:05:11.985Z,409.41
2019-02-27T08:06:11.978Z,404.73
2019-02-27T08:07:12.377Z,404.84
2019-02-27T08:08:11.967Z,405.45
2019-02-27T08:09:11.951Z,410.10
2019-02-27T08:10:11.929Z,404.89
2019-02-27T08:11:13.591Z,409.57
2019-02-27T08:12:11.910Z,404.82
2019-02-27T08:13:11.912Z,409.85
2019-02-27T08:14:12.979Z,404.07
2019-02-27T08:15:13.562Z,410.56
2019-02-27T08:16:11.871Z,404.13
2019-02-27T08:17:17.606Z,408.95
2019-02-27T08:18:12.909Z,404.27
2019-02-27T08:19:12.288Z,410.45
2019-02-27T08:20:11.812Z,410.04
2019-02-27T08:21:11.796Z,410.00
2019-02-27T08:22:11.793Z,409.97
2019-02-27T08:23:11.789Z,410.31
2019-02-27T08:24:11.759Z,409.79
2019-02-27T08:25:11.753Z,409.56
2019-02-27T08:26:11.769Z,404.29
2019-02-27T08:27:11.743Z,410.17
2019-02-27T08:28:11.747Z,410.25
2019-02-27T08:29:11.723Z,410.02
2019-02-27T08:30:11.696Z,410.13
2019-02-27T08:31:11.694Z,410.24
2019-02-27T08:32:11.679Z,410.21
2019-02-27T08:33:11.662Z,409.86
2019-02-27T08:34:11.683Z,409.86
2019-02-27T08:35:11.647Z,410.75
2019-02-27T08:36:11.646Z,409.89
2019-02-27T08:37:11.625Z,409.70
2019-02-27T08:38:11.610Z,404.44
2019-02-27T08:39:11.635Z,409.85
2019-02-27T08:40:11.627Z,404.81
2019-02-27T08:41:11.581Z,410.42
2019-02-27T08:42:11.575Z,405.29
2019-02-27T08:43:11.569Z,410.40
2019-02-27T08:44:12.293Z,404.44
2019-02-27T08:45:19.268Z,410.47
2019-02-27T08:46:12.520Z,404.72
2019-02-27T08:47:11.510Z,409.76
2019-02-27T08:48:11.529Z,404.97
2019-02-27T08:49:11.508Z,409.93
2019-02-27T08:50:11.482Z,409.63
2019-02-27T08:51:11.485Z,409.26
2019-02-27T08:52:15.257Z,409.39
2019-02-27T08:53:11.439Z,409.98
2019-02-27T08:54:11.462Z,409.68
2019-02-27T08:55:18.582Z,410.63
2019-02-27T08:56:12.964Z,409.70
2019-02-27T08:57:11.408Z,408.85
2019-02-27T08:58:11.396Z,409.92
2019-02-27T08:59:11.388Z,410.00
2019-02-27T09:00:14.172Z,409.70
2019-02-27T09:01:11.356Z,409.61
2019-02-27T09:02:11.355Z,410.55
2019-02-27T09:03:19.964Z,409.73
2019-02-27T09:04:12.432Z,410.76
2019-02-27T09:05:11.320Z,409.76
2019-02-27T09:06:11.302Z,409.92
2019-02-27T09:07:11.286Z,409.33
2019-02-27T09:08:11.291Z,410.14
2019-02-27T09:09:11.288Z,409.85
2019-02-27T09:10:11.265Z,410.42
2019-02-27T09:11:11.254Z,410.03
2019-02-27T09:12:13.388Z,410.26
2019-02-27T09:13:11.227Z,411.06
2019-02-27T09:14:12.049Z,409.79
2019-02-27T09:15:11.209Z,410.14
2019-02-27T09:16:11.190Z,409.34
2019-02-27T09:17:11.188Z,410.15
2019-02-27T09:18:11.179Z,409.82
2019-02-27T09:20:12.148Z,411.37
2019-02-27T09:21:11.146Z,409.67
2019-02-27T09:22:11.130Z,410.39
2019-02-27T09:23:11.103Z,411.00
2019-02-27T09:24:11.120Z,410.02
2019-02-27T09:25:11.089Z,410.03
2019-02-27T09:26:11.077Z,409.77
2019-02-27T09:27:11.078Z,410.20
2019-02-27T09:28:11.066Z,410.30
2019-02-27T09:29:11.045Z,410.80
2019-02-27T09:30:11.056Z,410.06
2019-02-27T09:31:12.175Z,411.22
2019-02-27T09:32:11.665Z,410.74
2019-02-27T09:33:11.011Z,410.68
2019-02-27T09:34:11.024Z,410.49
2019-02-27T09:35:11.031Z,410.75
2019-02-27T09:36:11.051Z,410.27
2019-02-27T09:37:10.976Z,410.08
2019-02-27T09:38:10.954Z,411.17
2019-02-27T09:39:10.947Z,410.55
2019-02-27T09:40:10.943Z,410.67
2019-02-27T09:41:12.409Z,410.10
2019-02-27T09:42:10.908Z,410.06
2019-02-27T09:43:11.746Z,410.26
2019-02-27T09:44:10.887Z,410.71
2019-02-27T09:45:11.131Z,409.15
2019-02-27T09:46:10.861Z,410.20
2019-02-27T09:47:10.871Z,408.90
2019-02-27T09:48:10.835Z,409.95
2019-02-27T09:49:10.835Z,409.98
2019-02-27T09:50:11.887Z,410.17
2019-02-27T09:51:10.800Z,409.81
2019-02-27T09:52:10.789Z,409.81
2019-02-27T09:53:10.804Z,408.07
2019-02-27T09:54:10.969Z,409.12
2019-02-27T09:55:10.764Z,408.51
2019-02-27T09:56:11.626Z,411.03
2019-02-27T09:57:10.751Z,412.46
2019-02-27T09:58:11.475Z,408.38
2019-02-27T09:59:10.715Z,410.17
2019-02-27T10:00:10.732Z,408.93
2019-02-27T10:01:10.697Z,410.36
2019-02-27T10:02:12.518Z,411.61
2019-02-27T10:03:10.668Z,409.40
2019-02-27T10:04:10.660Z,409.76
2019-02-27T10:05:12.431Z,408.61
2019-02-27T10:06:10.639Z,409.47
2019-02-27T10:07:10.644Z,404.39
2019-02-27T10:08:10.614Z,407.35
2019-02-27T10:09:10.602Z,408.23
2019-02-27T10:10:11.008Z,409.83
2019-02-27T10:11:10.586Z,409.76
2019-02-27T10:12:10.576Z,408.01
2019-02-27T10:13:10.563Z,410.32
2019-02-27T10:14:10.548Z,406.86
2019-02-27T10:15:10.613Z,410.01
2019-02-27T10:16:10.528Z,410.49
2019-02-27T10:17:10.537Z,409.60
2019-02-27T10:18:10.499Z,405.09
2019-02-27T10:19:10.494Z,407.51
2019-02-27T10:20:10.516Z,412.67
2019-02-27T10:21:12.042Z,409.52
2019-02-27T10:22:10.492Z,410.62
2019-02-27T10:23:10.462Z,406.19
2019-02-27T10:24:10.436Z,410.35
2019-02-27T10:25:10.448Z,408.67
2019-02-27T10:26:10.418Z,409.59
2019-02-27T10:27:10.412Z,406.38
2019-02-27T10:28:10.758Z,412.07
2019-02-27T10:29:10.955Z,410.84
2019-02-27T10:30:11.740Z,408.35
2019-02-27T10:31:10.367Z,408.19
2019-02-27T10:32:10.350Z,410.43
2019-02-27T10:33:11.150Z,411.05
2019-02-27T10:34:10.330Z,407.28
2019-02-27T10:35:10.333Z,408.65
2019-02-27T10:36:10.768Z,411.23
2019-02-27T10:37:12.899Z,407.72
2019-02-27T10:38:10.294Z,408.00
2019-02-27T10:39:10.307Z,412.61
2019-02-27T10:40:11.461Z,410.88
2019-02-27T10:41:10.250Z,411.00
2019-02-27T10:42:10.257Z,413.32
2019-02-27T10:43:10.247Z,410.44
2019-02-27T10:44:10.230Z,406.62
2019-02-27T10:45:10.711Z,408.43
2019-02-27T10:46:10.204Z,411.16
2019-02-27T10:47:10.181Z,406.81
2019-02-27T10:48:12.570Z,407.06
2019-02-27T10:49:10.154Z,408.44
2019-02-27T10:50:10.143Z,407.50
2019-02-27T10:51:10.226Z,413.19
2019-02-27T10:52:10.141Z,410.49
2019-02-27T10:53:10.112Z,410.63
2019-02-27T10:54:10.100Z,408.34
2019-02-27T10:55:11.368Z,409.27
2019-02-27T10:56:10.092Z,410.87
2019-02-27T10:57:10.069Z,410.73
2019-02-27T10:58:13.011Z,408.27
2019-02-27T10:59:10.060Z,411.17
2019-02-27T11:00:10.044Z,411.45
2019-02-27T11:01:10.051Z,407.61
2019-02-27T11:02:12.503Z,410.49
2019-02-27T11:03:10.004Z,412.05
2019-02-27T11:04:09.989Z,412.15
2019-02-27T11:05:10.004Z,411.11
2019-02-27T11:06:09.980Z,410.30
2019-02-27T11:07:10.019Z,409.08
2019-02-27T11:08:09.960Z,409.80
2019-02-27T11:09:09.932Z,409.03
2019-02-27T11:10:09.927Z,410.79
2019-02-27T11:11:09.918Z,408.02
2019-02-27T11:12:09.922Z,409.23
2019-02-27T11:13:09.887Z,407.49
2019-02-27T11:14:09.876Z,409.39
2019-02-27T11:15:09.870Z,403.61
2019-02-27T11:16:09.862Z,410.88
2019-02-27T11:17:09.890Z,412.21
2019-02-27T11:18:09.848Z,411.20
2019-02-27T11:19:09.830Z,411.89
2019-02-27T11:20:09.815Z,410.62
2019-02-27T11:21:09.805Z,409.24
2019-02-27T11:22:09.807Z,410.83
2019-02-27T11:23:09.787Z,410.66
2019-02-27T11:24:09.776Z,408.26
2019-02-27T11:25:09.764Z,408.30
2019-02-27T11:26:09.814Z,408.29
2019-02-27T11:27:09.762Z,412.06
2019-02-27T11:28:09.727Z,410.94
2019-02-27T11:29:09.727Z,409.21
2019-02-27T11:30:09.699Z,407.28
2019-02-27T11:31:10.962Z,414.05
2019-02-27T11:32:09.703Z,409.85
2019-02-27T11:33:09.662Z,411.80
2019-02-27T11:34:09.665Z,410.61
2019-02-27T11:35:09.644Z,404.76
2019-02-27T11:36:09.630Z,410.74
2019-02-27T11:37:12.875Z,409.45
2019-02-27T11:38:09.653Z,412.40
2019-02-27T11:39:09.600Z,411.02
2019-02-27T11:40:09.596Z,407.95
2019-02-27T11:41:09.590Z,405.43
2019-02-27T11:42:09.569Z,408.56
2019-02-27T11:43:09.582Z,410.87
2019-02-27T11:44:14.152Z,409.38
2019-02-27T11:45:09.541Z,411.95
2019-02-27T11:46:09.533Z,404.18
2019-02-27T11:47:11.370Z,413.18
2019-02-27T11:48:09.525Z,403.00
2019-02-27T11:49:09.503Z,403.15
2019-02-27T11:50:09.486Z,399.96
2019-02-27T11:51:09.470Z,408.53
2019-02-27T11:52:09.453Z,408.04
2019-02-27T11:53:09.475Z,404.93
2019-02-27T11:54:09.439Z,409.40
2019-02-27T11:55:09.417Z,413.33
2019-02-27T11:56:09.426Z,415.33
2019-02-27T11:57:09.403Z,411.13
2019-02-27T11:58:09.411Z,412.07
2019-02-27T11:59:12.552Z,412.91
2019-02-27T12:00:09.374Z,403.52
2019-02-27T12:01:09.352Z,409.68
2019-02-27T12:02:09.359Z,410.76
2019-02-27T12:03:11.063Z,412.02
2019-02-27T12:04:09.333Z,409.14
2019-02-27T12:05:09.323Z,401.48
2019-02-27T12:06:09.293Z,409.92
2019-02-27T12:07:09.304Z,407.66
2019-02-27T12:08:11.323Z,408.72
2019-02-27T12:09:09.277Z,408.70
2019-02-27T12:10:09.621Z,411.86
2019-02-27T12:11:09.714Z,411.38
2019-02-27T12:12:10.474Z,412.16
2019-02-27T12:13:09.234Z,413.82
2019-02-27T12:14:09.740Z,410.62
2019-02-27T12:15:09.787Z,414.28
2019-02-27T12:16:10.647Z,410.57
2019-02-27T12:17:09.187Z,406.18
2019-02-27T12:18:09.171Z,408.73
2019-02-27T12:19:09.512Z,409.56
2019-02-27T12:20:09.147Z,410.98
2019-02-27T12:21:09.142Z,411.13
2019-02-27T12:22:09.157Z,410.13
2019-02-27T12:23:10.105Z,410.42
2019-02-27T12:24:09.124Z,407.74
2019-02-27T12:25:09.099Z,411.75
2019-02-27T12:26:09.070Z,414.59
2019-02-27T12:27:11.845Z,413.42
2019-02-27T12:28:10.090Z,408.44
2019-02-27T12:29:09.059Z,407.09